createdAt,value
2022-08-23T00:02:58.677Z,5.93
2022-08-23T00:06:42.863Z,2.72
2022-08-23T00:10:25.008Z,5.45
2022-08-23T00:14:11.846Z,2.05
2022-08-23T00:17:53.673Z,3.35
2022-08-23T00:21:37.228Z,2.22
2022-08-23T00:25:19.151Z,2.65
2022-08-23T00:29:00.940Z,3.35
2022-08-23T00:32:43.799Z,3.30
2022-08-23T00:36:25.598Z,2.10
2022-08-23T00:40:10.462Z,2.85
2022-08-23T00:44:12.653Z,5.88
2022-08-23T00:47:54.992Z,4.25
2022-08-23T00:51:52.548Z,2.80
2022-08-23T00:55:36.139Z,2.03
2022-08-23T00:59:18.467Z,3.25
2022-08-23T01:03:02.076Z,2.53
2022-08-23T01:06:47.436Z,1.63
2022-08-23T01:10:47.396Z,3.78
2022-08-23T01:14:47.424Z,3.20
2022-08-23T01:18:31.641Z,1.52
2022-08-23T01:22:28.434Z,1.40
2022-08-23T01:26:11.795Z,2.63
2022-08-23T01:29:54.127Z,2.80
2022-08-23T01:33:37.899Z,1.83
2022-08-23T01:37:21.297Z,1.77
2022-08-23T01:41:03.267Z,2.20
2022-08-23T01:44:45.729Z,5.53
2022-08-23T01:48:27.597Z,4.53
2022-08-23T01:52:09.459Z,4.20
2022-08-23T01:55:51.439Z,2.25
2022-08-23T01:59:33.969Z,1.75
2022-08-23T02:03:15.978Z,2.90
2022-08-23T02:06:57.783Z,1.73
2022-08-23T02:10:39.583Z,2.97
2022-08-23T02:14:21.571Z,2.72
2022-08-23T02:18:03.433Z,3.03
2022-08-23T02:21:46.963Z,3.90
2022-08-23T02:25:29.140Z,4.03
2022-08-23T02:29:10.948Z,5.05
2022-08-23T02:32:52.828Z,4.93
2022-08-23T02:36:35.454Z,5.88
2022-08-23T02:40:17.330Z,6.07
2022-08-23T02:43:59.346Z,6.03
2022-08-23T02:47:41.209Z,6.80
2022-08-23T02:51:23.624Z,3.83
2022-08-23T02:55:07.579Z,5.97
2022-08-23T02:58:54.196Z,7.22
2022-08-23T03:02:38.554Z,6.13
2022-08-23T03:06:24.670Z,7.03
2022-08-23T03:10:09.462Z,5.78
2022-08-23T03:13:52.880Z,7.38
2022-08-23T03:17:35.546Z,5.60
2022-08-23T03:21:19.015Z,3.60
2022-08-23T03:25:01.552Z,5.53
2022-08-23T03:28:44.457Z,8.07
2022-08-23T03:32:26.539Z,5.15
2022-08-23T03:36:12.246Z,5.45
2022-08-23T03:39:54.172Z,5.43
2022-08-23T03:43:36.578Z,4.50
2022-08-23T03:47:18.428Z,3.88
2022-08-23T03:51:00.520Z,5.05
2022-08-23T03:54:42.330Z,5.60
2022-08-23T03:58:25.782Z,7.68
2022-08-23T04:02:08.614Z,5.88
2022-08-23T04:05:50.506Z,7.95
2022-08-23T04:09:32.337Z,6.88
2022-08-23T04:13:14.152Z,7.10
2022-08-23T04:16:55.980Z,6.88
2022-08-23T04:20:39.215Z,5.30
2022-08-23T04:24:21.428Z,6.50
2022-08-23T04:28:03.981Z,7.95
2022-08-23T04:31:46.765Z,5.32
2022-08-23T04:35:30.896Z,5.60
2022-08-23T04:39:12.955Z,5.20
2022-08-23T04:42:54.794Z,4.93
2022-08-23T04:46:36.703Z,4.30
2022-08-23T04:50:18.716Z,4.00
2022-08-23T04:54:00.567Z,5.30
2022-08-23T04:57:42.703Z,4.28
2022-08-23T05:01:27.382Z,3.75
2022-08-23T05:05:10.555Z,3.03
2022-08-23T05:08:52.544Z,3.58
2022-08-23T05:12:35.380Z,7.55
2022-08-23T05:16:17.449Z,2.80
2022-08-23T05:19:59.245Z,7.45
2022-08-23T05:23:41.067Z,4.97
2022-08-23T05:27:23.724Z,5.55
2022-08-23T05:31:27.437Z,7.30
2022-08-23T05:35:09.657Z,6.18
2022-08-23T05:38:53.613Z,5.47
2022-08-23T05:42:36.065Z,4.97
2022-08-23T05:46:28.320Z,5.10
2022-08-23T05:50:10.840Z,2.63
2022-08-23T05:53:53.884Z,4.28
2022-08-23T05:57:38.087Z,2.70
2022-08-23T06:01:21.173Z,5.35
2022-08-23T06:05:03.086Z,5.10
2022-08-23T06:08:49.135Z,4.28
2022-08-23T06:12:34.930Z,10.57
2022-08-23T06:16:18.583Z,9.03
2022-08-23T06:20:00.547Z,4.57
2022-08-23T06:23:43.416Z,4.18
2022-08-23T06:27:25.215Z,4.57
2022-08-23T06:31:07.624Z,6.93
2022-08-23T06:34:49.460Z,3.65
2022-08-23T06:38:32.176Z,7.55
2022-08-23T06:42:38.525Z,4.35
2022-08-23T06:46:23.465Z,6.90
2022-08-23T06:50:06.094Z,5.85
2022-08-23T06:53:47.887Z,4.50
2022-08-23T06:57:29.877Z,4.25
2022-08-23T07:01:51.599Z,6.25
2022-08-23T07:05:33.453Z,4.70
2022-08-23T07:09:15.684Z,4.35
2022-08-23T07:12:57.940Z,5.65
2022-08-23T07:16:44.543Z,4.60
2022-08-23T07:24:09.220Z,4.28
2022-08-23T07:27:51.020Z,4.68
2022-08-23T07:31:34.666Z,6.45
2022-08-23T07:35:16.783Z,4.97
2022-08-23T07:38:59.788Z,7.57
2022-08-23T07:42:41.695Z,7.78
2022-08-23T07:46:23.821Z,6.35
2022-08-23T07:50:07.936Z,6.10
2022-08-23T07:53:49.827Z,6.05
2022-08-23T07:57:31.675Z,6.53
2022-08-23T08:01:22.225Z,4.40
2022-08-23T08:05:04.416Z,4.68
2022-08-23T08:08:46.643Z,4.80
2022-08-23T08:12:33.469Z,8.18
2022-08-23T08:16:34.707Z,11.75
2022-08-23T08:20:17.029Z,6.25
2022-08-23T08:23:58.938Z,7.45
2022-08-23T08:27:42.352Z,5.93
2022-08-23T08:31:27.455Z,3.50
2022-08-23T08:35:10.468Z,3.80
2022-08-23T08:38:54.345Z,4.15
2022-08-23T08:43:01.369Z,3.75
2022-08-23T08:46:50.886Z,3.47
2022-08-23T08:50:43.288Z,2.72
2022-08-23T08:54:27.701Z,2.65
2022-08-23T08:58:19.640Z,1.55
2022-08-23T09:02:02.847Z,2.35
2022-08-23T09:05:57.544Z,1.50
2022-08-23T09:09:50.280Z,1.27
2022-08-23T09:13:46.242Z,2.50
2022-08-23T09:17:31.976Z,1.88
2022-08-23T09:21:15.825Z,1.60
2022-08-23T09:24:58.823Z,1.48
2022-08-23T09:28:40.801Z,1.75
2022-08-23T09:32:34.483Z,2.20
2022-08-23T09:36:25.554Z,1.23
2022-08-23T09:40:41.281Z,1.75
2022-08-23T09:44:35.775Z,4.57
2022-08-23T09:48:40.098Z,1.58
2022-08-23T09:52:32.279Z,1.10
2022-08-23T09:56:22.167Z,1.83
2022-08-23T10:00:16.281Z,1.88
2022-08-23T10:04:10.350Z,1.90
2022-08-23T10:08:00.620Z,3.50
2022-08-23T10:11:45.520Z,2.75
2022-08-23T10:15:45.526Z,2.03
2022-08-23T10:20:00.036Z,2.28
2022-08-23T10:23:41.845Z,1.02
2022-08-23T10:28:04.152Z,2.47
2022-08-23T10:32:02.808Z,1.15
2022-08-23T10:36:06.063Z,2.03
2022-08-23T10:40:09.522Z,2.50
2022-08-23T10:44:12.408Z,1.20
2022-08-23T10:48:02.785Z,1.55
2022-08-23T10:51:48.192Z,0.80
2022-08-23T10:55:54.752Z,0.30
2022-08-23T10:59:37.619Z,0.57
2022-08-23T11:03:51.349Z,0.85
2022-08-23T11:07:41.255Z,1.48
2022-08-23T11:12:13.899Z,0.65
2022-08-23T11:16:23.516Z,0.73
2022-08-23T11:20:09.879Z,1.60
2022-08-23T11:23:54.724Z,0.60
2022-08-23T11:27:41.914Z,1.15
2022-08-23T11:31:48.920Z,1.10
2022-08-23T11:35:43.095Z,1.13
2022-08-23T11:39:25.507Z,0.88
2022-08-23T11:43:22.030Z,1.55
2022-08-23T11:47:10.180Z,0.90
2022-08-23T11:50:59.462Z,0.95
2022-08-23T11:55:20.424Z,0.80
2022-08-23T11:59:57.534Z,0.43
2022-08-23T12:03:52.232Z,0.80
2022-08-23T12:11:57.335Z,1.25
2022-08-23T12:16:06.218Z,1.40
2022-08-23T12:20:16.501Z,1.95
2022-08-23T12:24:03.512Z,1.60
2022-08-23T12:27:47.303Z,1.45
2022-08-23T12:31:39.192Z,1.27
2022-08-23T12:35:42.950Z,1.50
2022-08-23T12:39:36.076Z,1.25
2022-08-23T12:43:22.743Z,1.10
2022-08-23T12:47:15.735Z,0.73
2022-08-23T12:51:10.559Z,0.40
2022-08-23T12:54:55.020Z,0.93
2022-08-23T12:58:39.748Z,0.82
2022-08-23T13:02:29.843Z,2.35
2022-08-23T13:06:14.891Z,0.80
2022-08-23T13:09:57.119Z,0.98
2022-08-23T13:13:41.146Z,0.63
2022-08-23T13:17:33.585Z,0.75
2022-08-23T13:21:24.542Z,1.98
2022-08-23T13:25:31.916Z,0.57
2022-08-23T13:29:17.850Z,1.20
2022-08-23T13:33:19.540Z,0.80
2022-08-23T13:37:04.922Z,0.65
2022-08-23T13:41:28.951Z,1.88
2022-08-23T13:45:16.340Z,1.10
2022-08-23T13:49:03.177Z,0.98
2022-08-23T13:53:11.518Z,0.52
2022-08-23T13:56:53.521Z,0.68
2022-08-23T14:00:35.353Z,0.60
2022-08-23T14:04:17.347Z,0.93
2022-08-23T14:08:01.121Z,1.15
2022-08-23T14:11:43.525Z,1.08
2022-08-23T14:15:54.539Z,0.90
2022-08-23T14:23:29.388Z,0.55
2022-08-23T14:27:11.777Z,2.72
2022-08-23T14:30:53.645Z,1.13
2022-08-23T14:34:35.556Z,3.28
2022-08-23T14:38:18.411Z,1.40
2022-08-23T14:42:00.369Z,1.30
2022-08-23T14:45:42.253Z,1.15
2022-08-23T14:49:24.166Z,1.63
2022-08-23T14:53:14.713Z,1.02
2022-08-23T14:56:57.182Z,2.35
2022-08-23T15:00:39.069Z,1.58
2022-08-23T15:04:23.723Z,1.60
2022-08-23T15:08:05.547Z,3.63
2022-08-23T15:15:50.159Z,1.90
2022-08-23T15:19:33.268Z,1.52
2022-08-23T15:23:15.301Z,0.82
2022-08-23T15:26:59.770Z,1.40
2022-08-23T15:30:42.669Z,0.75
2022-08-23T15:34:24.528Z,1.98
2022-08-23T15:38:06.377Z,1.70
2022-08-23T15:41:48.327Z,2.25
2022-08-23T15:45:31.376Z,1.17
2022-08-23T15:49:15.807Z,1.75
2022-08-23T15:52:58.185Z,0.60
2022-08-23T15:56:50.123Z,0.80
2022-08-23T16:00:32.410Z,0.95
2022-08-23T16:04:14.423Z,1.05
2022-08-23T16:07:57.791Z,0.50
2022-08-23T16:11:40.093Z,0.50
2022-08-23T16:15:22.177Z,0.98
2022-08-23T16:19:04.207Z,0.45
2022-08-23T16:22:46.000Z,0.88
2022-08-23T16:26:35.104Z,0.93
2022-08-23T16:30:17.753Z,0.63
2022-08-23T16:34:02.593Z,1.35
2022-08-23T16:37:44.452Z,0.87
2022-08-23T16:41:26.256Z,0.55
2022-08-23T16:45:08.983Z,2.72
2022-08-23T16:48:50.991Z,0.45
2022-08-23T16:52:34.721Z,0.75
2022-08-23T16:56:17.863Z,1.52
2022-08-23T16:59:59.763Z,0.63
2022-08-23T17:03:42.723Z,1.77
2022-08-23T17:07:24.916Z,0.93
2022-08-23T17:11:13.037Z,0.63
2022-08-23T17:14:57.387Z,0.43
2022-08-23T17:18:39.512Z,0.57
2022-08-23T17:22:21.354Z,1.67
2022-08-23T17:26:03.503Z,0.85
2022-08-23T17:29:45.328Z,0.70
2022-08-23T17:33:28.545Z,1.10
2022-08-23T17:37:17.059Z,1.83
2022-08-23T17:40:59.125Z,0.60
2022-08-23T17:44:41.106Z,1.27
2022-08-23T17:48:22.984Z,1.35
2022-08-23T17:52:05.340Z,2.33
2022-08-23T17:55:47.185Z,1.42
2022-08-23T17:59:29.173Z,1.88
2022-08-23T18:03:11.235Z,1.40
2022-08-23T18:06:53.100Z,4.13
2022-08-23T18:10:35.270Z,2.72
2022-08-23T18:14:17.203Z,1.55
2022-08-23T18:18:00.507Z,1.60
2022-08-23T18:21:43.948Z,1.33
2022-08-23T18:25:26.508Z,2.08
2022-08-23T18:29:10.494Z,2.85
2022-08-23T18:32:52.409Z,2.22
2022-08-23T18:36:35.455Z,2.65
2022-08-23T18:40:17.385Z,2.40
2022-08-23T18:44:00.124Z,2.03
2022-08-23T18:47:47.443Z,2.70
2022-08-23T18:51:29.891Z,3.45
2022-08-23T18:55:11.754Z,3.42
2022-08-23T18:58:53.615Z,2.25
2022-08-23T19:02:35.730Z,2.28
2022-08-23T19:06:17.836Z,4.10
2022-08-23T19:10:01.283Z,2.75
2022-08-23T19:13:43.129Z,2.40
2022-08-23T19:17:24.915Z,2.00
2022-08-23T19:21:06.944Z,2.72
2022-08-23T19:24:48.964Z,5.07
2022-08-23T19:28:32.443Z,4.47
2022-08-23T19:32:14.789Z,4.72
2022-08-23T19:35:58.127Z,4.35
2022-08-23T19:39:40.462Z,1.63
2022-08-23T19:43:22.991Z,2.65
2022-08-23T19:47:06.852Z,3.55
2022-08-23T19:50:55.403Z,3.05
2022-08-23T19:54:37.428Z,2.35
2022-08-23T19:58:20.793Z,3.22
2022-08-23T20:02:03.426Z,2.30
2022-08-23T20:05:45.369Z,1.42
2022-08-23T20:09:29.681Z,2.38
2022-08-23T20:13:11.979Z,4.18
2022-08-23T20:16:55.099Z,2.60
2022-08-23T20:20:37.021Z,2.60
2022-08-23T20:24:28.830Z,2.72
2022-08-23T20:28:22.131Z,3.33
2022-08-23T20:32:06.865Z,2.45
2022-08-23T20:35:49.724Z,1.90
2022-08-23T20:39:32.198Z,1.75
2022-08-23T20:43:14.077Z,2.90
2022-08-23T20:47:00.877Z,4.82
2022-08-23T20:50:44.810Z,1.55
2022-08-23T20:54:26.887Z,1.00
2022-08-23T20:58:08.835Z,1.95
2022-08-23T21:01:50.945Z,2.03
2022-08-23T21:05:33.006Z,4.43
2022-08-23T21:09:19.369Z,2.55
2022-08-23T21:16:48.304Z,2.72
2022-08-23T21:20:30.226Z,2.60
2022-08-23T21:24:12.536Z,3.78
2022-08-23T21:27:54.432Z,1.70
2022-08-23T21:31:37.891Z,2.30
2022-08-23T21:35:20.162Z,1.83
2022-08-23T21:39:02.064Z,2.30
2022-08-23T21:42:47.118Z,3.38
2022-08-23T21:46:29.276Z,2.88
2022-08-23T21:50:11.418Z,3.95
2022-08-23T21:53:53.642Z,6.82
2022-08-23T21:57:36.118Z,1.42
2022-08-23T22:01:19.180Z,2.45
2022-08-23T22:05:01.575Z,2.08
2022-08-23T22:08:44.224Z,1.85
2022-08-23T22:12:26.413Z,2.58
2022-08-23T22:16:08.537Z,5.90
2022-08-23T22:19:51.636Z,2.15
2022-08-23T22:23:34.020Z,3.55
2022-08-23T22:27:15.849Z,4.43
2022-08-23T22:31:02.021Z,1.55
2022-08-23T22:38:25.781Z,2.55
2022-08-23T22:42:09.350Z,2.95
2022-08-23T22:45:55.260Z,1.73
2022-08-23T22:49:37.138Z,1.95
2022-08-23T22:53:19.887Z,2.50
2022-08-23T22:57:01.940Z,2.30
2022-08-23T23:00:43.988Z,2.63
2022-08-23T23:04:27.341Z,3.08
2022-08-23T23:08:27.651Z,3.08
2022-08-23T23:12:09.697Z,2.78
2022-08-23T23:15:52.068Z,1.58
2022-08-23T23:19:52.400Z,3.25
2022-08-23T23:23:36.831Z,3.65
2022-08-23T23:27:18.641Z,3.17
2022-08-23T23:31:00.676Z,1.60
2022-08-23T23:34:42.601Z,2.45
2022-08-23T23:38:24.633Z,2.03
2022-08-23T23:42:06.841Z,2.20
2022-08-23T23:45:48.687Z,2.00
2022-08-23T23:49:33.163Z,1.33
2022-08-23T23:53:15.985Z,2.13
2022-08-23T23:56:57.923Z,1.95
